Terminal Aerodrome Forecast
Issued by NWS Louisville, KY

Home | Current Version | Previous Version | Text Only | Print | Product List | Glossary On
Versions: 1 2 3 4 5 6 7 8 9 10 11 12 13 14
000
FTUS43 KLMK 161120
TAFBWG
TAF
KBWG 161120Z 1612/1712 28011KT P6SM -RASN BKN018 OVC040
     FM161500 27015G25KT P6SM OVC025
     FM162000 28012G22KT P6SM BKN040=

USA.gov is the U.S. government's official web portal to all federal, state and local government web resources and services.